Terminal Aerodrome Forecast
Issued by NWS Sterling, VA

Current Version | Previous Version | Text Only | Print | Product List | Glossary Off
Versions: 1 2 3 4 5 6 7 8 9 10 11 12 13 14 15 16 17 18 19 20 21

000
FTUS41 KLWX 250906 AAA
TAFDCA
TAF AMD
KDCA 250906Z 2509/2606 VRB04KT P6SM OVC100
     FM252100 17004KT P6SM -RA OVC070
     FM260000 00000KT 6SM -RA OVC025
     FM260200 VRB03KT 3SM -RA OVC015=

USA.gov is the U.S. government's official web portal to all federal, state and local government web resources and services.